sensor_id;sensor_type;location;lat;lon;timestamp;pressure;altitude;pressure_sealevel;temperature;humidity
7200;BME280;3641;49.082;8.200;2023-01-30T00:00:49;101199.50;;;-0.37;80.01
7200;BME280;3641;49.082;8.200;2023-01-30T00:03:17;101193.13;;;-0.50;80.83
7200;BME280;3641;49.082;8.200;2023-01-30T00:05:44;101185.88;;;-0.48;80.28
7200;BME280;3641;49.082;8.200;2023-01-30T00:08:10;101189.16;;;-0.73;82.11
7200;BME280;3641;49.082;8.200;2023-01-30T00:10:37;101186.22;;;-0.68;80.88
7200;BME280;3641;49.082;8.200;2023-01-30T00:13:03;101192.41;;;-0.38;79.78
7200;BME280;3641;49.082;8.200;2023-01-30T00:15:30;101181.66;;;-0.38;80.32
7200;BME280;3641;49.082;8.200;2023-01-30T00:17:56;101184.47;;;-0.10;77.44
7200;BME280;3641;49.082;8.200;2023-01-30T00:20:24;101207.94;;;-0.28;80.01
7200;BME280;3641;49.082;8.200;2023-01-30T00:22:51;101208.91;;;-0.15;78.85
7200;BME280;3641;49.082;8.200;2023-01-30T00:25:17;101210.63;;;-0.28;79.52
7200;BME280;3641;49.082;8.200;2023-01-30T00:27:44;101210.69;;;-0.44;80.32
7200;BME280;3641;49.082;8.200;2023-01-30T00:30:11;101216.75;;;-0.26;79.75
7200;BME280;3641;49.082;8.200;2023-01-30T00:32:37;101235.63;;;-0.28;80.32
7200;BME280;3641;49.082;8.200;2023-01-30T00:35:05;101237.66;;;-0.17;79.15
7200;BME280;3641;49.082;8.200;2023-01-30T00:37:33;101226.53;;;-0.11;78.34
7200;BME280;3641;49.082;8.200;2023-01-30T00:39:59;101232.78;;;0.04;78.39
7200;BME280;3641;49.082;8.200;2023-01-30T00:42:26;101234.28;;;-0.35;80.09
7200;BME280;3641;49.082;8.200;2023-01-30T00:45:10;101220.47;;;-0.29;79.92
7200;BME280;3641;49.082;8.200;2023-01-30T00:47:55;101222.88;;;-0.10;79.12
7200;BME280;3641;49.082;8.200;2023-01-30T00:50:22;101220.59;;;-0.16;79.46
7200;BME280;3641;49.082;8.200;2023-01-30T00:52:50;101223.47;;;-0.19;79.03
7200;BME280;3641;49.082;8.200;2023-01-30T00:55:16;101219.88;;;-0.34;80.05
7200;BME280;3641;49.082;8.200;2023-01-30T00:57:43;101219.06;;;-0.06;79.04
7200;BME280;3641;49.082;8.200;2023-01-30T01:00:11;101216.34;;;-0.34;78.37
7200;BME280;3641;49.082;8.200;2023-01-30T01:02:37;101204.78;;;-0.35;79.55
7200;BME280;3641;49.082;8.200;2023-01-30T01:05:05;101189.63;;;-0.22;78.26
7200;BME280;3641;49.082;8.200;2023-01-30T01:07:31;101205.81;;;-0.38;78.85
7200;BME280;3641;49.082;8.200;2023-01-30T01:09:59;101224.41;;;-0.20;78.39
7200;BME280;3641;49.082;8.200;2023-01-30T01:12:26;101222.03;;;-0.10;78.32
7200;BME280;3641;49.082;8.200;2023-01-30T01:14:52;101210.81;;;-0.17;79.03
7200;BME280;3641;49.082;8.200;2023-01-30T01:17:18;101210.63;;;-0.28;78.53
7200;BME280;3641;49.082;8.200;2023-01-30T01:19:45;101209.16;;;-0.34;78.62
7200;BME280;3641;49.082;8.200;2023-01-30T01:22:11;101188.28;;;-0.14;78.65
7200;BME280;3641;49.082;8.200;2023-01-30T01:24:38;101180.03;;;-0.26;78.49
7200;BME280;3641;49.082;8.200;2023-01-30T01:27:05;101184.72;;;-0.44;79.51
7200;BME280;3641;49.082;8.200;2023-01-30T01:29:32;101174.84;;;-0.29;79.06
7200;BME280;3641;49.082;8.200;2023-01-30T01:31:58;101180.13;;;-0.27;79.33
7200;BME280;3641;49.082;8.200;2023-01-30T01:34:25;101175.56;;;-0.25;78.63
7200;BME280;3641;49.082;8.200;2023-01-30T01:36:51;101142.38;;;-0.10;78.03
7200;BME280;3641;49.082;8.200;2023-01-30T01:39:18;101123.59;;;-0.53;79.81
7200;BME280;3641;49.082;8.200;2023-01-30T01:41:44;101146.75;;;-0.81;80.79
7200;BME280;3641;49.082;8.200;2023-01-30T01:44:12;101166.75;;;-0.72;80.64
7200;BME280;3641;49.082;8.200;2023-01-30T01:46:44;101158.19;;;-0.48;79.84
7200;BME280;3641;49.082;8.200;2023-01-30T01:49:14;101145.91;;;-0.67;80.85
7200;BME280;3641;49.082;8.200;2023-01-30T01:51:47;101169.06;;;-0.66;80.59
7200;BME280;3641;49.082;8.200;2023-01-30T01:54:18;101161.16;;;-0.39;79.36
7200;BME280;3641;49.082;8.200;2023-01-30T01:56:48;101164.06;;;-0.72;80.21
7200;BME280;3641;49.082;8.200;2023-01-30T01:59:20;101155.78;;;-0.53;80.19
7200;BME280;3641;49.082;8.200;2023-01-30T02:01:48;101143.13;;;-0.65;80.50
7200;BME280;3641;49.082;8.200;2023-01-30T02:04:16;101122.25;;;-0.75;80.53
7200;BME280;3641;49.082;8.200;2023-01-30T02:07:03;101125.13;;;-0.63;80.42
7200;BME280;3641;49.082;8.200;2023-01-30T02:09:29;101126.25;;;-0.67;80.92
7200;BME280;3641;49.082;8.200;2023-01-30T02:11:58;101128.56;;;-0.61;80.53
7200;BME280;3641;49.082;8.200;2023-01-30T02:14:30;101121.00;;;-0.69;80.84
7200;BME280;3641;49.082;8.200;2023-01-30T02:16:58;101126.56;;;-1.02;81.85
7200;BME280;3641;49.082;8.200;2023-01-30T02:19:31;101115.03;;;-0.88;81.33
7200;BME280;3641;49.082;8.200;2023-01-30T02:25:21;101112.75;;;-0.80;81.31
7200;BME280;3641;49.082;8.200;2023-01-30T02:31:04;101082.59;;;-0.69;80.85
7200;BME280;3641;49.082;8.200;2023-01-30T02:33:38;101053.19;;;-1.00;81.45
7200;BME280;3641;49.082;8.200;2023-01-30T02:36:14;101023.16;;;-0.90;81.52
7200;BME280;3641;49.082;8.200;2023-01-30T02:38:48;101004.97;;;-1.00;81.71
7200;BME280;3641;49.082;8.200;2023-01-30T02:41:26;100998.03;;;-1.18;82.37
7200;BME280;3641;49.082;8.200;2023-01-30T02:44:02;101029.72;;;-1.11;81.69
7200;BME280;3641;49.082;8.200;2023-01-30T02:46:37;101019.47;;;-1.04;82.04
7200;BME280;3641;49.082;8.200;2023-01-30T02:49:08;101028.78;;;-1.10;81.99
7200;BME280;3641;49.082;8.200;2023-01-30T02:51:39;101041.91;;;-0.76;81.08
7200;BME280;3641;49.082;8.200;2023-01-30T02:54:06;101023.34;;;-0.94;81.60
7200;BME280;3641;49.082;8.200;2023-01-30T02:56:43;101013.94;;;-0.72;80.45
7200;BME280;3641;49.082;8.200;2023-01-30T02:59:11;100990.00;;;-0.89;81.39
7200;BME280;3641;49.082;8.200;2023-01-30T03:05:09;100975.09;;;-1.08;82.01
7200;BME280;3641;49.082;8.200;2023-01-30T03:07:45;100988.22;;;-0.89;82.33
7200;BME280;3641;49.082;8.200;2023-01-30T03:10:20;101024.84;;;-0.75;81.69
7200;BME280;3641;49.082;8.200;2023-01-30T03:12:52;101033.13;;;-0.78;81.23
7200;BME280;3641;49.082;8.200;2023-01-30T03:15:25;101048.22;;;-0.63;81.47
7200;BME280;3641;49.082;8.200;2023-01-30T03:17:55;101052.47;;;-0.59;81.56
7200;BME280;3641;49.082;8.200;2023-01-30T03:20:23;101048.78;;;-0.43;80.88
7200;BME280;3641;49.082;8.200;2023-01-30T03:22:52;101062.28;;;-0.30;79.87
7200;BME280;3641;49.082;8.200;2023-01-30T03:25:21;101072.66;;;-0.53;81.24
7200;BME280;3641;49.082;8.200;2023-01-30T03:27:52;101075.91;;;-0.33;80.56
7200;BME280;3641;49.082;8.200;2023-01-30T03:30:19;101068.81;;;-0.20;80.63
7200;BME280;3641;49.082;8.200;2023-01-30T03:32:46;101066.31;;;-0.23;79.61
7200;BME280;3641;49.082;8.200;2023-01-30T03:35:12;101066.69;;;-0.29;80.04
7200;BME280;3641;49.082;8.200;2023-01-30T03:37:43;101068.41;;;-0.14;79.13
7200;BME280;3641;49.082;8.200;2023-01-30T03:40:10;101058.84;;;-0.47;81.40
7200;BME280;3641;49.082;8.200;2023-01-30T03:42:37;101056.09;;;-0.45;80.76
7200;BME280;3641;49.082;8.200;2023-01-30T03:45:05;101049.28;;;-0.37;81.63
7200;BME280;3641;49.082;8.200;2023-01-30T03:47:31;101051.09;;;-0.66;81.85
7200;BME280;3641;49.082;8.200;2023-01-30T03:49:58;101047.25;;;-0.33;81.33
7200;BME280;3641;49.082;8.200;2023-01-30T03:52:24;101055.38;;;-0.20;81.58
7200;BME280;3641;49.082;8.200;2023-01-30T03:54:52;101053.63;;;-0.07;80.09
7200;BME280;3641;49.082;8.200;2023-01-30T03:57:19;101056.44;;;-0.23;79.90
7200;BME280;3641;49.082;8.200;2023-01-30T03:59:45;101043.63;;;-0.32;81.15
7200;BME280;3641;49.082;8.200;2023-01-30T04:02:12;101044.88;;;-0.38;80.93
7200;BME280;3641;49.082;8.200;2023-01-30T04:04:45;101046.75;;;-0.11;80.18
7200;BME280;3641;49.082;8.200;2023-01-30T04:07:11;101067.06;;;-0.21;80.13
7200;BME280;3641;49.082;8.200;2023-01-30T04:09:38;101050.09;;;-0.07;79.76
7200;BME280;3641;49.082;8.200;2023-01-30T04:12:06;101045.81;;;-0.24;81.30
7200;BME280;3641;49.082;8.200;2023-01-30T04:14:32;101053.97;;;0.02;79.10
7200;BME280;3641;49.082;8.200;2023-01-30T04:16:59;101050.22;;;-0.38;81.04
7200;BME280;3641;49.082;8.200;2023-01-30T04:19:25;101047.25;;;-0.33;81.75
7200;BME280;3641;49.082;8.200;2023-01-30T04:21:52;101052.50;;;-0.17;80.41
7200;BME280;3641;49.082;8.200;2023-01-30T04:24:18;101062.91;;;0.02;79.35
7200;BME280;3641;49.082;8.200;2023-01-30T04:26:45;101068.28;;;0.02;80.16
7200;BME280;3641;49.082;8.200;2023-01-30T04:29:13;101066.03;;;-0.19;80.69
7200;BME280;3641;49.082;8.200;2023-01-30T04:31:39;101064.94;;;-0.02;80.60
7200;BME280;3641;49.082;8.200;2023-01-30T04:34:05;101057.69;;;-0.14;81.07
7200;BME280;3641;49.082;8.200;2023-01-30T04:36:32;101056.34;;;-0.21;80.70
7200;BME280;3641;49.082;8.200;2023-01-30T04:38:58;101049.63;;;-0.14;80.78
7200;BME280;3641;49.082;8.200;2023-01-30T04:41:25;101047.09;;;-0.44;82.38
7200;BME280;3641;49.082;8.200;2023-01-30T04:43:51;101046.78;;;-0.25;81.82
7200;BME280;3641;49.082;8.200;2023-01-30T04:46:19;101048.22;;;-0.48;81.93
7200;BME280;3641;49.082;8.200;2023-01-30T04:48:46;101043.84;;;-0.49;82.85
7200;BME280;3641;49.082;8.200;2023-01-30T04:51:12;101037.69;;;-0.37;82.10
7200;BME280;3641;49.082;8.200;2023-01-30T04:53:39;101034.22;;;-0.25;80.13
7200;BME280;3641;49.082;8.200;2023-01-30T04:56:06;101030.22;;;-0.32;82.60
7200;BME280;3641;49.082;8.200;2023-01-30T04:58:32;101025.59;;;-0.30;81.29
7200;BME280;3641;49.082;8.200;2023-01-30T05:01:11;101009.38;;;-0.56;82.75
7200;BME280;3641;49.082;8.200;2023-01-30T05:03:39;100995.34;;;-0.32;81.91
7200;BME280;3641;49.082;8.200;2023-01-30T05:06:06;100994.56;;;-0.34;81.82
7200;BME280;3641;49.082;8.200;2023-01-30T05:08:33;100989.28;;;-0.35;82.46
7200;BME280;3641;49.082;8.200;2023-01-30T05:10:59;100989.41;;;-0.37;82.69
7200;BME280;3641;49.082;8.200;2023-01-30T05:13:26;100987.25;;;-0.17;81.88
7200;BME280;3641;49.082;8.200;2023-01-30T05:15:52;100988.75;;;-0.13;81.14
7200;BME280;3641;49.082;8.200;2023-01-30T05:18:18;100969.38;;;-0.04;80.79
7200;BME280;3641;49.082;8.200;2023-01-30T05:20:46;100968.28;;;-0.29;82.95
7200;BME280;3641;49.082;8.200;2023-01-30T05:23:13;100968.44;;;-0.45;83.41
7200;BME280;3641;49.082;8.200;2023-01-30T05:25:39;100969.78;;;-0.52;83.87
7200;BME280;3641;49.082;8.200;2023-01-30T05:28:06;100978.94;;;-0.27;83.00
7200;BME280;3641;49.082;8.200;2023-01-30T05:30:32;100978.75;;;-0.39;83.69
7200;BME280;3641;49.082;8.200;2023-01-30T05:32:59;100976.22;;;-0.55;84.23
7200;BME280;3641;49.082;8.200;2023-01-30T05:35:25;100977.31;;;-0.30;83.22
7200;BME280;3641;49.082;8.200;2023-01-30T05:37:53;100974.09;;;-0.35;83.35
7200;BME280;3641;49.082;8.200;2023-01-30T05:40:20;100984.59;;;-0.17;83.13
7200;BME280;3641;49.082;8.200;2023-01-30T05:42:46;100979.56;;;-0.51;85.14
7200;BME280;3641;49.082;8.200;2023-01-30T05:45:13;100972.78;;;-0.57;87.31
7200;BME280;3641;49.082;8.200;2023-01-30T05:47:39;100982.56;;;-0.56;87.27
7200;BME280;3641;49.082;8.200;2023-01-30T05:50:06;100978.72;;;-0.66;87.63
7200;BME280;3641;49.082;8.200;2023-01-30T05:52:33;100976.50;;;-0.59;88.26
7200;BME280;3641;49.082;8.200;2023-01-30T05:55:01;100969.16;;;-0.70;89.44
7200;BME280;3641;49.082;8.200;2023-01-30T05:57:27;100956.72;;;-0.71;90.21
7200;BME280;3641;49.082;8.200;2023-01-30T05:59:53;100965.13;;;-0.77;90.65
7200;BME280;3641;49.082;8.200;2023-01-30T06:02:20;100954.16;;;0.09;90.70
7200;BME280;3641;49.082;8.200;2023-01-30T06:04:46;100944.06;;;1.54;81.56
7200;BME280;3641;49.082;8.200;2023-01-30T06:07:13;100936.72;;;1.93;80.91
7200;BME280;3641;49.082;8.200;2023-01-30T06:09:39;100945.75;;;0.41;82.88
7200;BME280;3641;49.082;8.200;2023-01-30T06:12:07;100946.75;;;-0.69;91.07
7200;BME280;3641;49.082;8.200;2023-01-30T06:14:33;100940.06;;;-0.76;93.12
7200;BME280;3641;49.082;8.200;2023-01-30T06:17:00;100947.13;;;-0.75;93.41
7200;BME280;3641;49.082;8.200;2023-01-30T06:19:26;100940.84;;;-0.88;93.76
7200;BME280;3641;49.082;8.200;2023-01-30T06:21:53;100949.44;;;-0.83;94.48
7200;BME280;3641;49.082;8.200;2023-01-30T06:24:19;100944.09;;;-0.98;94.50
7200;BME280;3641;49.082;8.200;2023-01-30T06:26:46;100941.97;;;-0.93;94.37
7200;BME280;3641;49.082;8.200;2023-01-30T06:29:14;100939.81;;;-1.00;94.86
7200;BME280;3641;49.082;8.200;2023-01-30T06:31:40;100962.38;;;-0.90;94.37
7200;BME280;3641;49.082;8.200;2023-01-30T06:34:07;100937.97;;;-1.00;94.67
7200;BME280;3641;49.082;8.200;2023-01-30T06:36:33;100940.75;;;-1.01;94.69
7200;BME280;3641;49.082;8.200;2023-01-30T06:38:59;100946.09;;;-1.01;94.26
7200;BME280;3641;49.082;8.200;2023-01-30T06:41:26;100943.50;;;-0.88;94.44
7200;BME280;3641;49.082;8.200;2023-01-30T06:43:52;100943.00;;;-0.66;92.97
7200;BME280;3641;49.082;8.200;2023-01-30T06:46:21;100948.59;;;-0.84;93.82
7200;BME280;3641;49.082;8.200;2023-01-30T06:48:47;100946.38;;;-0.92;93.87
7200;BME280;3641;49.082;8.200;2023-01-30T06:51:14;100948.84;;;-0.74;93.34
7200;BME280;3641;49.082;8.200;2023-01-30T06:53:40;100965.50;;;-0.83;93.55
7200;BME280;3641;49.082;8.200;2023-01-30T06:56:07;100979.38;;;-0.77;93.70
7200;BME280;3641;49.082;8.200;2023-01-30T06:58:33;100971.47;;;-0.78;93.04
7200;BME280;3641;49.082;8.200;2023-01-30T07:01:00;100980.94;;;-0.87;92.91
7200;BME280;3641;49.082;8.200;2023-01-30T07:03:28;100983.81;;;-0.76;92.84
7200;BME280;3641;49.082;8.200;2023-01-30T07:05:54;100986.75;;;-0.66;92.47
7200;BME280;3641;49.082;8.200;2023-01-30T07:08:21;100983.75;;;-0.47;90.86
7200;BME280;3641;49.082;8.200;2023-01-30T07:10:47;100999.50;;;-0.55;90.92
7200;BME280;3641;49.082;8.200;2023-01-30T07:13:13;101000.72;;;-0.46;91.05
7200;BME280;3641;49.082;8.200;2023-01-30T07:15:41;100992.91;;;-0.64;92.19
7200;BME280;3641;49.082;8.200;2023-01-30T07:18:07;101002.41;;;-0.31;90.08
7200;BME280;3641;49.082;8.200;2023-01-30T07:20:35;101009.38;;;-0.56;91.78
7200;BME280;3641;49.082;8.200;2023-01-30T07:23:02;101020.81;;;-0.25;89.09
7200;BME280;3641;49.082;8.200;2023-01-30T07:25:29;101015.47;;;-0.39;91.01
7200;BME280;3641;49.082;8.200;2023-01-30T07:27:57;101015.75;;;-0.44;91.86
7200;BME280;3641;49.082;8.200;2023-01-30T07:30:24;101002.47;;;-0.60;92.80
7200;BME280;3641;49.082;8.200;2023-01-30T07:32:51;100980.25;;;-0.62;93.98
7200;BME280;3641;49.082;8.200;2023-01-30T07:35:18;100959.47;;;-0.58;93.20
7200;BME280;3641;49.082;8.200;2023-01-30T07:37:47;100951.66;;;-0.90;94.64
7200;BME280;3641;49.082;8.200;2023-01-30T07:40:14;100942.47;;;-0.86;94.68
7200;BME280;3641;49.082;8.200;2023-01-30T07:42:41;100943.59;;;-0.90;95.22
7200;BME280;3641;49.082;8.200;2023-01-30T07:45:08;100950.88;;;-0.78;95.63
7200;BME280;3641;49.082;8.200;2023-01-30T07:47:35;100963.22;;;-0.75;94.85
7200;BME280;3641;49.082;8.200;2023-01-30T07:50:02;100964.38;;;-0.65;94.54
7200;BME280;3641;49.082;8.200;2023-01-30T07:52:29;100981.78;;;-0.72;95.51
7200;BME280;3641;49.082;8.200;2023-01-30T07:54:56;100989.78;;;-0.43;92.76
7200;BME280;3641;49.082;8.200;2023-01-30T07:57:23;100996.63;;;-0.52;94.50
7200;BME280;3641;49.082;8.200;2023-01-30T07:59:49;101001.03;;;-0.51;94.19
7200;BME280;3641;49.082;8.200;2023-01-30T08:02:16;100992.91;;;-0.64;95.35
7200;BME280;3641;49.082;8.200;2023-01-30T08:04:42;100985.38;;;-0.30;92.70
7200;BME280;3641;49.082;8.200;2023-01-30T08:07:09;100975.19;;;-0.66;94.38
7200;BME280;3641;49.082;8.200;2023-01-30T08:09:35;100977.44;;;-0.46;94.06
7200;BME280;3641;49.082;8.200;2023-01-30T08:12:03;100970.78;;;-0.26;92.20
7200;BME280;3641;49.082;8.200;2023-01-30T08:14:30;100966.13;;;-0.37;93.53
7200;BME280;3641;49.082;8.200;2023-01-30T08:16:56;100969.31;;;-0.44;93.51
7200;BME280;3641;49.082;8.200;2023-01-30T08:19:23;100980.75;;;-0.28;93.49
7200;BME280;3641;49.082;8.200;2023-01-30T08:21:49;100990.56;;;-0.41;94.62
7200;BME280;3641;49.082;8.200;2023-01-30T08:24:16;100989.91;;;-0.59;94.91
7200;BME280;3641;49.082;8.200;2023-01-30T08:26:42;100972.69;;;-0.55;95.64
7200;BME280;3641;49.082;8.200;2023-01-30T08:29:10;100956.22;;;-0.63;96.05
7200;BME280;3641;49.082;8.200;2023-01-30T08:31:37;100957.81;;;-0.46;96.22
7200;BME280;3641;49.082;8.200;2023-01-30T08:34:03;100956.16;;;-0.34;95.79
7200;BME280;3641;49.082;8.200;2023-01-30T08:36:30;100958.97;;;-0.50;96.11
7200;BME280;3641;49.082;8.200;2023-01-30T08:38:56;100969.00;;;-0.40;96.25
7200;BME280;3641;49.082;8.200;2023-01-30T08:41:23;100961.28;;;-0.59;96.09
7200;BME280;3641;49.082;8.200;2023-01-30T08:43:51;100967.03;;;-0.65;96.55
7200;BME280;3641;49.082;8.200;2023-01-30T08:46:19;100967.91;;;-0.64;97.24
7200;BME280;3641;49.082;8.200;2023-01-30T08:48:46;100962.25;;;-0.60;98.19
7200;BME280;3641;49.082;8.200;2023-01-30T08:51:13;100954.75;;;-0.55;97.24
7200;BME280;3641;49.082;8.200;2023-01-30T08:53:39;100953.03;;;-0.41;96.48
7200;BME280;3641;49.082;8.200;2023-01-30T08:56:06;100950.16;;;-0.38;96.03
7200;BME280;3641;49.082;8.200;2023-01-30T08:58:33;100963.91;;;-0.30;96.30
7200;BME280;3641;49.082;8.200;2023-01-30T09:01:04;100957.78;;;-0.32;96.61
7200;BME280;3641;49.082;8.200;2023-01-30T09:03:32;100953.13;;;0.12;94.20
7200;BME280;3641;49.082;8.200;2023-01-30T09:05:58;100959.00;;;-0.23;95.13
7200;BME280;3641;49.082;8.200;2023-01-30T09:08:24;100971.66;;;-0.25;96.54
7200;BME280;3641;49.082;8.200;2023-01-30T09:10:51;100956.16;;;-0.07;94.27
7200;BME280;3641;49.082;8.200;2023-01-30T09:13:17;100975.00;;;-0.22;96.34
7200;BME280;3641;49.082;8.200;2023-01-30T09:15:44;100946.13;;;-0.18;97.25
7200;BME280;3641;49.082;8.200;2023-01-30T09:18:10;100947.22;;;-0.21;97.12
7200;BME280;3641;49.082;8.200;2023-01-30T09:20:38;100956.91;;;-0.05;96.57
7200;BME280;3641;49.082;8.200;2023-01-30T09:23:05;100951.16;;;0.01;95.70
7200;BME280;3641;49.082;8.200;2023-01-30T09:25:31;100943.44;;;-0.18;96.97
7200;BME280;3641;49.082;8.200;2023-01-30T09:27:58;100947.31;;;-0.22;97.93
7200;BME280;3641;49.082;8.200;2023-01-30T09:30:24;100951.56;;;-0.05;96.90
7200;BME280;3641;49.082;8.200;2023-01-30T09:32:51;100931.25;;;-0.09;96.08
7200;BME280;3641;49.082;8.200;2023-01-30T09:35:17;100940.66;;;-0.16;96.59
7200;BME280;3641;49.082;8.200;2023-01-30T09:37:48;100930.34;;;-0.23;96.96
7200;BME280;3641;49.082;8.200;2023-01-30T09:40:18;100927.50;;;-0.07;96.96
7200;BME280;3641;49.082;8.200;2023-01-30T09:42:57;100940.00;;;0.07;96.22
7200;BME280;3641;49.082;8.200;2023-01-30T09:45:38;100946.09;;;-0.04;96.38
7200;BME280;3641;49.082;8.200;2023-01-30T09:48:14;100932.00;;;-0.07;96.50
7200;BME280;3641;49.082;8.200;2023-01-30T09:51:06;100915.81;;;-0.06;97.36
7200;BME280;3641;49.082;8.200;2023-01-30T09:53:51;100912.19;;;-0.05;96.62
7200;BME280;3641;49.082;8.200;2023-01-30T09:56:22;100924.72;;;-0.05;96.65
7200;BME280;3641;49.082;8.200;2023-01-30T09:58:50;100927.13;;;0.12;96.51
7200;BME280;3641;49.082;8.200;2023-01-30T10:01:28;100932.28;;;0.15;96.27
7200;BME280;3641;49.082;8.200;2023-01-30T10:04:05;100926.88;;;0.03;96.08
7200;BME280;3641;49.082;8.200;2023-01-30T10:06:46;100927.13;;;0.12;95.71
7200;BME280;3641;49.082;8.200;2023-01-30T10:09:26;100921.63;;;0.01;96.11
7200;BME280;3641;49.082;8.200;2023-01-30T10:12:03;100911.72;;;0.29;95.23
7200;BME280;3641;49.082;8.200;2023-01-30T10:14:42;100922.56;;;0.27;94.79
7200;BME280;3641;49.082;8.200;2023-01-30T10:17:27;100912.34;;;0.20;96.18
7200;BME280;3641;49.082;8.200;2023-01-30T10:20:10;100917.84;;;0.31;95.04
7200;BME280;3641;49.082;8.200;2023-01-30T10:22:51;100917.41;;;0.24;96.04
7200;BME280;3641;49.082;8.200;2023-01-30T10:25:26;100902.69;;;0.30;95.54
7200;BME280;3641;49.082;8.200;2023-01-30T10:27:59;100904.72;;;0.26;94.93
7200;BME280;3641;49.082;8.200;2023-01-30T10:30:27;100893.44;;;0.21;95.48
7200;BME280;3641;49.082;8.200;2023-01-30T10:32:56;100907.69;;;0.09;95.90
7200;BME280;3641;49.082;8.200;2023-01-30T10:35:29;100913.72;;;0.25;95.68
7200;BME280;3641;49.082;8.200;2023-01-30T10:37:58;100910.38;;;0.09;96.59
7200;BME280;3641;49.082;8.200;2023-01-30T10:40:33;100921.44;;;0.17;96.03
7200;BME280;3641;49.082;8.200;2023-01-30T10:43:08;100902.56;;;0.18;95.71
7200;BME280;3641;49.082;8.200;2023-01-30T10:45:42;100922.94;;;0.08;95.82
7200;BME280;3641;49.082;8.200;2023-01-30T10:48:21;100912.00;;;0.11;96.47
7200;BME280;3641;49.082;8.200;2023-01-30T10:50:55;100907.84;;;0.33;95.80
7200;BME280;3641;49.082;8.200;2023-01-30T10:53:27;100901.09;;;0.27;96.15
7200;BME280;3641;49.082;8.200;2023-01-30T10:56:04;100898.81;;;0.21;95.93
7200;BME280;3641;49.082;8.200;2023-01-30T10:58:39;100902.25;;;0.36;95.43
7200;BME280;3641;49.082;8.200;2023-01-30T11:01:15;100928.78;;;0.28;95.06
7200;BME280;3641;49.082;8.200;2023-01-30T11:03:50;100924.38;;;0.40;95.34
7200;BME280;3641;49.082;8.200;2023-01-30T11:06:21;100924.16;;;0.30;95.78
7200;BME280;3641;49.082;8.200;2023-01-30T11:08:49;100912.59;;;0.42;95.72
7200;BME280;3641;49.082;8.200;2023-01-30T11:11:26;100909.66;;;0.32;95.57
7200;BME280;3641;49.082;8.200;2023-01-30T11:14:03;100903.00;;;0.38;96.41
7200;BME280;3641;49.082;8.200;2023-01-30T11:16:30;100902.78;;;0.41;96.25
7200;BME280;3641;49.082;8.200;2023-01-30T11:19:03;100898.09;;;0.45;95.76
7200;BME280;3641;49.082;8.200;2023-01-30T11:21:30;100898.72;;;0.35;97.59
7200;BME280;3641;49.082;8.200;2023-01-30T11:24:03;100897.72;;;0.24;97.89
7200;BME280;3641;49.082;8.200;2023-01-30T11:26:32;100894.63;;;0.30;100.00
7200;BME280;3641;49.082;8.200;2023-01-30T11:29:14;100887.78;;;0.39;100.00
7200;BME280;3641;49.082;8.200;2023-01-30T11:31:40;100877.13;;;0.24;100.00
7200;BME280;3641;49.082;8.200;2023-01-30T11:34:12;100879.13;;;0.21;100.00
7200;BME280;3641;49.082;8.200;2023-01-30T11:36:40;100881.84;;;0.33;100.00
7200;BME280;3641;49.082;8.200;2023-01-30T11:39:19;100891.84;;;0.44;100.00
7200;BME280;3641;49.082;8.200;2023-01-30T11:42:01;100893.66;;;0.18;100.00
7200;BME280;3641;49.082;8.200;2023-01-30T11:44:31;100895.16;;;0.48;100.00
7200;BME280;3641;49.082;8.200;2023-01-30T11:46:59;100896.25;;;0.32;100.00
7200;BME280;3641;49.082;8.200;2023-01-30T11:49:31;100892.47;;;0.35;100.00
7200;BME280;3641;49.082;8.200;2023-01-30T11:51:59;100884.09;;;0.27;100.00
7200;BME280;3641;49.082;8.200;2023-01-30T11:54:30;100882.41;;;0.39;100.00
7200;BME280;3641;49.082;8.200;2023-01-30T11:57:01;100887.88;;;0.37;100.00
7200;BME280;3641;49.082;8.200;2023-01-30T11:59:31;100896.78;;;0.38;100.00
7200;BME280;3641;49.082;8.200;2023-01-30T12:02:03;100886.03;;;0.38;100.00
7200;BME280;3641;49.082;8.200;2023-01-30T12:04:31;100905.16;;;0.33;100.00
7200;BME280;3641;49.082;8.200;2023-01-30T12:07:07;100871.56;;;0.40;100.00
7200;BME280;3641;49.082;8.200;2023-01-30T12:09:36;100875.94;;;0.41;100.00
7200;BME280;3641;49.082;8.200;2023-01-30T12:12:25;100862.81;;;0.62;100.00
7200;BME280;3641;49.082;8.200;2023-01-30T12:17:43;100862.28;;;0.70;100.00
7200;BME280;3641;49.082;8.200;2023-01-30T12:20:16;100876.16;;;0.64;100.00
7200;BME280;3641;49.082;8.200;2023-01-30T12:22:48;100871.97;;;0.60;100.00
7200;BME280;3641;49.082;8.200;2023-01-30T12:25:19;100867.66;;;0.70;100.00
7200;BME280;3641;49.082;8.200;2023-01-30T12:27:54;100869.50;;;0.57;100.00
7200;BME280;3641;49.082;8.200;2023-01-30T12:30:31;100866.59;;;0.72;100.00
7200;BME280;3641;49.082;8.200;2023-01-30T12:33:00;100872.06;;;0.84;100.00
7200;BME280;3641;49.082;8.200;2023-01-30T12:35:39;100877.00;;;0.90;100.00
7200;BME280;3641;49.082;8.200;2023-01-30T12:38:20;100867.00;;;0.92;100.00
7200;BME280;3641;49.082;8.200;2023-01-30T12:40:55;100857.72;;;1.09;98.84
7200;BME280;3641;49.082;8.200;2023-01-30T12:43:52;100878.91;;;1.01;100.00
7200;BME280;3641;49.082;8.200;2023-01-30T12:46:34;100878.59;;;1.05;100.00
7200;BME280;3641;49.082;8.200;2023-01-30T12:49:12;100885.66;;;1.06;99.32
7200;BME280;3641;49.082;8.200;2023-01-30T12:51:56;100886.63;;;1.18;98.92
7200;BME280;3641;49.082;8.200;2023-01-30T12:54:38;100877.16;;;1.13;99.78
7200;BME280;3641;49.082;8.200;2023-01-30T12:57:16;100879.13;;;0.98;100.00
7200;BME280;3641;49.082;8.200;2023-01-30T12:59:54;100888.13;;;1.09;100.00
7200;BME280;3641;49.082;8.200;2023-01-30T13:02:48;100874.78;;;1.21;99.19
7200;BME280;3641;49.082;8.200;2023-01-30T13:05:24;100892.97;;;1.17;100.00
7200;BME280;3641;49.082;8.200;2023-01-30T13:08:05;100881.03;;;1.21;100.00
7200;BME280;3641;49.082;8.200;2023-01-30T13:10:38;100891.91;;;1.20;99.33
7200;BME280;3641;49.082;8.200;2023-01-30T13:13:14;100891.53;;;1.24;99.73
7200;BME280;3641;49.082;8.200;2023-01-30T13:15:50;100886.03;;;1.26;100.00
7200;BME280;3641;49.082;8.200;2023-01-30T13:18:24;100880.78;;;1.37;99.02
7200;BME280;3641;49.082;8.200;2023-01-30T13:20:57;100890.34;;;1.29;100.00
7200;BME280;3641;49.082;8.200;2023-01-30T13:23:35;100884.31;;;1.38;99.65
7200;BME280;3641;49.082;8.200;2023-01-30T13:26:09;100876.25;;;1.38;99.59
7200;BME280;3641;49.082;8.200;2023-01-30T13:28:38;100893.16;;;1.27;100.00
7200;BME280;3641;49.082;8.200;2023-01-30T13:31:09;100890.53;;;1.38;99.88
7200;BME280;3641;49.082;8.200;2023-01-30T13:33:39;100881.28;;;1.42;99.84
7200;BME280;3641;49.082;8.200;2023-01-30T13:36:12;100879.25;;;1.33;100.00
7200;BME280;3641;49.082;8.200;2023-01-30T13:38:44;100890.88;;;1.34;99.59